Time;durP1;ratioP1;P1;durP2;ratioP2;P2;SDS_P1;SDS_P2;PMS_P1;PMS_P2;Temp;Humidity;BMP_temperature;BMP_pressure;BME280_temperature;BME280_humidity;BME280_pressure;Samples;Min_cycle;Max_cycle;Signal;HPM_P1;HPM_P2
2021/11/04 00:00:26;;;;;;;52.07;28.70;;;;;;;;;;5062856;28;20464;-83
2021/11/04 00:02:54;;;;;;;46.80;25.83;;;;;;;;;;5067568;28;20461;-81
2021/11/04 00:05:21;;;;;;;46.97;25.70;;;;;;;;;;5057788;28;20457;-81
2021/11/04 00:07:51;;;;;;;44.43;25.90;;;;;;;;;;5053875;28;20483;-82
2021/11/04 00:10:18;;;;;;;47.50;28.50;;;;;;;;;;5060534;28;20786;-82
2021/11/04 00:12:47;;;;;;;46.17;27.00;;;;;;;;;;5077133;28;20461;-81
2021/11/04 00:15:14;;;;;;;46.03;27.07;;;;;;;;;;5063983;28;20499;-83
2021/11/04 00:17:42;;;;;;;43.80;26.20;;;;;;;;;;5070122;28;20465;-82
2021/11/04 00:20:11;;;;;;;45.43;26.27;;;;;;;;;;5066232;28;20473;-82
2021/11/04 00:22:38;;;;;;;48.93;29.67;;;;;;;;;;5064433;28;20534;-81
2021/11/04 00:25:06;;;;;;;49.80;26.97;;;;;;;;;;5064973;28;20460;-82
2021/11/04 00:27:33;;;;;;;51.03;26.17;;;;;;;;;;5061117;28;20462;-82
2021/11/04 00:30:02;;;;;;;62.70;29.37;;;;;;;;;;5072866;28;20481;-81
2021/11/04 00:32:29;;;;;;;54.10;29.37;;;;;;;;;;5066381;28;20458;-82
2021/11/04 00:34:56;;;;;;;46.00;27.83;;;;;;;;;;5061876;28;20480;-81
2021/11/04 00:37:23;;;;;;;46.60;27.90;;;;;;;;;;5058622;28;20456;-82
2021/11/04 00:39:50;;;;;;;45.13;26.20;;;;;;;;;;5053403;28;20495;-81
2021/11/04 00:42:18;;;;;;;51.60;28.43;;;;;;;;;;5066802;28;20555;-83
2021/11/04 00:44:45;;;;;;;46.37;26.90;;;;;;;;;;5063336;28;20549;-81
2021/11/04 00:47:14;;;;;;;45.03;28.30;;;;;;;;;;5066912;28;20452;-83
2021/11/04 00:49:41;;;;;;;54.77;29.83;;;;;;;;;;5057271;28;20559;-82
2021/11/04 00:52:08;;;;;;;44.57;27.60;;;;;;;;;;5058206;28;20456;-81
2021/11/04 00:54:35;;;;;;;46.23;26.90;;;;;;;;;;5064807;28;20713;-82
2021/11/04 00:57:03;;;;;;;61.07;32.30;;;;;;;;;;5057426;28;20555;-83
2021/11/04 00:59:30;;;;;;;66.30;34.27;;;;;;;;;;5066569;28;20492;-81
2021/11/04 01:01:57;;;;;;;51.50;29.60;;;;;;;;;;5058203;28;20459;-79
2021/11/04 01:04:25;;;;;;;58.53;31.10;;;;;;;;;;5065678;28;20473;-81
2021/11/04 01:06:52;;;;;;;53.53;31.50;;;;;;;;;;5059937;28;20456;-82
2021/11/04 01:09:20;;;;;;;50.03;28.70;;;;;;;;;;5072786;28;20472;-80
2021/11/04 01:11:47;;;;;;;55.10;29.97;;;;;;;;;;5061557;28;20463;-81
2021/11/04 01:14:14;;;;;;;46.43;25.47;;;;;;;;;;5048653;28;20502;-83
2021/11/04 01:16:42;;;;;;;49.60;29.40;;;;;;;;;;5051652;28;20459;-83
2021/11/04 01:19:12;;;;;;;52.83;28.37;;;;;;;;;;5056601;28;20525;-81
2021/11/04 01:21:40;;;;;;;51.03;27.60;;;;;;;;;;5064476;28;20459;-81
2021/11/04 01:24:07;;;;;;;48.20;27.77;;;;;;;;;;5076611;28;20461;-82
2021/11/04 01:26:34;;;;;;;50.90;28.10;;;;;;;;;;5060413;28;20531;-81
2021/11/04 01:29:01;;;;;;;53.10;30.63;;;;;;;;;;5070484;28;20516;-82
2021/11/04 01:31:28;;;;;;;48.10;28.00;;;;;;;;;;5055416;28;20551;-81
2021/11/04 01:33:56;;;;;;;55.63;29.33;;;;;;;;;;5070702;28;20487;-80
2021/11/04 01:36:23;;;;;;;47.70;28.20;;;;;;;;;;5063693;28;20463;-81
2021/11/04 01:38:52;;;;;;;49.00;27.80;;;;;;;;;;5062991;28;20500;-81
2021/11/04 01:41:19;;;;;;;59.97;31.30;;;;;;;;;;5052433;28;20542;-82
2021/11/04 01:43:46;;;;;;;50.63;28.40;;;;;;;;;;5056614;28;20463;-81
2021/11/04 01:46:13;;;;;;;46.33;26.73;;;;;;;;;;5055152;28;20837;-81
2021/11/04 01:48:40;;;;;;;50.73;27.07;;;;;;;;;;5054655;28;20494;-82
2021/11/04 01:51:07;;;;;;;50.63;29.60;;;;;;;;;;5055320;28;20452;-79
2021/11/04 01:53:34;;;;;;;52.23;27.83;;;;;;;;;;5054054;28;20453;-83
2021/11/04 01:56:03;;;;;;;49.77;25.93;;;;;;;;;;5048850;28;20457;-79
2021/11/04 01:58:30;;;;;;;46.93;27.73;;;;;;;;;;5060530;28;20479;-81
2021/11/04 02:00:57;;;;;;;48.53;25.90;;;;;;;;;;5055432;28;20550;-81
2021/11/04 02:03:30;;;;;;;49.13;28.20;;;;;;;;;;5054963;28;20828;-81
2021/11/04 02:06:00;;;;;;;43.53;26.93;;;;;;;;;;5065861;28;20863;-80
2021/11/04 02:08:32;;;;;;;49.30;27.77;;;;;;;;;;5068994;28;20476;-82
2021/11/04 02:11:06;;;;;;;44.90;26.17;;;;;;;;;;5054500;28;20462;-82
2021/11/04 02:13:36;;;;;;;46.00;26.70;;;;;;;;;;5068434;28;20459;-81
2021/11/04 02:16:04;;;;;;;49.40;27.53;;;;;;;;;;5054675;28;20495;-81
2021/11/04 02:18:33;;;;;;;46.63;26.83;;;;;;;;;;5065102;28;20486;-80
2021/11/04 02:21:02;;;;;;;52.30;29.77;;;;;;;;;;5067102;28;20459;-82
2021/11/04 02:23:33;;;;;;;49.00;28.50;;;;;;;;;;5070595;28;20465;-82
2021/11/04 02:26:03;;;;;;;55.17;28.87;;;;;;;;;;5053503;28;20449;-81
2021/11/04 02:28:30;;;;;;;41.63;24.97;;;;;;;;;;5064092;28;20472;-83
2021/11/04 02:30:58;;;;;;;52.57;29.50;;;;;;;;;;5058601;28;20459;-82
2021/11/04 02:33:26;;;;;;;57.90;31.33;;;;;;;;;;5067492;28;20899;-82
2021/11/04 02:35:53;;;;;;;49.57;27.30;;;;;;;;;;5062146;28;20495;-79
2021/11/04 02:38:21;;;;;;;51.30;28.77;;;;;;;;;;5075825;28;20483;-83
2021/11/04 02:40:49;;;;;;;54.83;28.43;;;;;;;;;;5065960;28;20516;-82
2021/11/04 02:43:18;;;;;;;45.30;26.17;;;;;;;;;;5074498;28;20533;-83
2021/11/04 02:45:45;;;;;;;54.43;28.30;;;;;;;;;;5066245;28;20487;-82
2021/11/04 02:48:13;;;;;;;49.53;29.03;;;;;;;;;;5070628;28;20489;-82
2021/11/04 02:50:40;;;;;;;46.13;26.93;;;;;;;;;;5071191;28;20447;-82
2021/11/04 02:53:07;;;;;;;49.90;27.73;;;;;;;;;;5070081;28;20460;-81
2021/11/04 02:55:35;;;;;;;43.37;25.30;;;;;;;;;;5066963;28;21037;-82
2021/11/04 02:58:04;;;;;;;52.17;28.10;;;;;;;;;;5076982;28;20546;-82
2021/11/04 03:00:33;;;;;;;54.60;28.67;;;;;;;;;;5079733;28;20973;-82
2021/11/04 03:03:00;;;;;;;46.37;26.80;;;;;;;;;;5080233;28;20462;-82
2021/11/04 03:05:27;;;;;;;56.70;29.60;;;;;;;;;;5078962;28;20457;-82
2021/11/04 03:07:54;;;;;;;48.27;24.33;;;;;;;;;;5079853;28;20531;-82
2021/11/04 03:10:22;;;;;;;42.60;25.63;;;;;;;;;;5080160;28;20538;-82
2021/11/04 03:12:50;;;;;;;47.93;26.17;;;;;;;;;;5069983;28;20463;-82
2021/11/04 03:15:18;;;;;;;47.00;25.77;;;;;;;;;;5075281;28;20868;-82
2021/11/04 03:17:47;;;;;;;57.17;27.87;;;;;;;;;;5079039;28;20455;-82
2021/11/04 03:20:15;;;;;;;50.03;26.20;;;;;;;;;;5082616;28;20482;-82
2021/11/04 03:22:43;;;;;;;53.20;26.27;;;;;;;;;;5082074;28;20463;-82
2021/11/04 03:25:10;;;;;;;51.90;27.50;;;;;;;;;;5066723;28;20520;-82
2021/11/04 03:27:40;;;;;;;43.00;24.90;;;;;;;;;;5079238;28;20551;-80
2021/11/04 03:30:08;;;;;;;47.23;25.80;;;;;;;;;;5061593;28;21082;-81
2021/11/04 03:32:36;;;;;;;53.77;27.37;;;;;;;;;;5074303;28;20455;-83
2021/11/04 03:35:05;;;;;;;49.80;27.47;;;;;;;;;;5081085;28;20488;-83
2021/11/04 03:37:33;;;;;;;46.27;25.97;;;;;;;;;;5065998;28;20483;-82
2021/11/04 03:40:05;;;;;;;46.50;25.70;;;;;;;;;;5067803;28;20504;-80
2021/11/04 03:42:32;;;;;;;45.73;24.93;;;;;;;;;;5073408;28;20460;-82
2021/11/04 03:45:01;;;;;;;48.80;25.00;;;;;;;;;;5084152;28;20444;-82
2021/11/04 03:47:30;;;;;;;41.83;23.47;;;;;;;;;;5068578;28;20526;-83
2021/11/04 03:49:58;;;;;;;37.20;22.30;;;;;;;;;;5077621;28;20503;-82
2021/11/04 03:52:27;;;;;;;48.77;25.47;;;;;;;;;;5084805;28;20493;-83
2021/11/04 03:54:54;;;;;;;41.37;23.97;;;;;;;;;;5076593;28;20480;-82
2021/11/04 03:57:23;;;;;;;39.60;23.00;;;;;;;;;;5065863;28;20483;-82
2021/11/04 03:59:51;;;;;;;51.37;26.80;;;;;;;;;;5073979;28;20486;-83
2021/11/04 04:02:19;;;;;;;51.60;27.63;;;;;;;;;;5064213;28;20452;-83
2021/11/04 04:04:51;;;;;;;54.50;28.47;;;;;;;;;;5059742;28;20472;-82
2021/11/04 04:07:19;;;;;;;49.80;26.40;;;;;;;;;;5066252;28;20443;-82
2021/11/04 04:09:48;;;;;;;55.23;28.67;;;;;;;;;;5077491;28;20508;-82
2021/11/04 04:12:16;;;;;;;58.43;29.63;;;;;;;;;;5064997;28;20456;-82
2021/11/04 04:14:44;;;;;;;61.10;31.80;;;;;;;;;;5078322;28;20569;-83
2021/11/04 04:17:11;;;;;;;52.73;29.27;;;;;;;;;;5076739;28;20444;-82
2021/11/04 04:19:38;;;;;;;60.43;29.00;;;;;;;;;;5065902;28;20472;-81
2021/11/04 04:22:06;;;;;;;54.10;28.50;;;;;;;;;;5064953;28;20461;-81
2021/11/04 04:24:33;;;;;;;60.40;30.10;;;;;;;;;;5072476;28;20446;-80
2021/11/04 04:27:03;;;;;;;53.87;30.63;;;;;;;;;;5079259;28;20524;-81
2021/11/04 04:29:30;;;;;;;61.10;30.93;;;;;;;;;;5073524;28;20483;-80
2021/11/04 04:31:59;;;;;;;63.50;33.03;;;;;;;;;;5074754;28;20527;-80
2021/11/04 04:34:26;;;;;;;60.40;32.93;;;;;;;;;;5071323;28;20459;-80
2021/11/04 04:36:53;;;;;;;61.30;32.40;;;;;;;;;;5076142;28;21015;-80
2021/11/04 04:39:20;;;;;;;65.27;32.90;;;;;;;;;;5077758;28;20473;-80
2021/11/04 04:41:47;;;;;;;58.47;30.97;;;;;;;;;;5067576;28;20512;-80
2021/11/04 04:44:16;;;;;;;67.00;34.10;;;;;;;;;;5070460;28;20481;-80
2021/11/04 04:46:43;;;;;;;57.53;32.10;;;;;;;;;;5068822;28;20468;-79
2021/11/04 04:49:10;;;;;;;64.87;35.10;;;;;;;;;;5078901;28;20472;-79
2021/11/04 04:51:37;;;;;;;59.23;33.13;;;;;;;;;;5063925;28;20466;-79
2021/11/04 04:54:04;;;;;;;57.47;32.00;;;;;;;;;;5060850;28;20991;-78
2021/11/04 04:56:31;;;;;;;68.87;33.53;;;;;;;;;;5064648;28;20559;-79
2021/11/04 04:59:00;;;;;;;63.97;32.03;;;;;;;;;;5064672;28;20494;-80
2021/11/04 05:01:28;;;;;;;57.30;30.67;;;;;;;;;;5065133;28;20458;-78
2021/11/04 05:03:55;;;;;;;59.50;31.83;;;;;;;;;;5063273;28;20456;-80
2021/11/04 05:06:22;;;;;;;64.57;31.30;;;;;;;;;;5079680;28;20515;-80
2021/11/04 05:08:49;;;;;;;54.13;28.70;;;;;;;;;;5074304;28;21064;-80
2021/11/04 05:11:17;;;;;;;50.30;25.07;;;;;;;;;;5069098;28;20459;-81
2021/11/04 05:13:44;;;;;;;52.77;28.37;;;;;;;;;;5067875;28;20458;-79
2021/11/04 05:16:11;;;;;;;56.73;29.67;;;;;;;;;;5064772;28;20578;-80
2021/11/04 05:18:39;;;;;;;55.53;31.27;;;;;;;;;;5068416;28;20508;-80
2021/11/04 05:21:06;;;;;;;52.67;28.70;;;;;;;;;;5073877;28;20488;-80
2021/11/04 05:23:35;;;;;;;54.57;28.17;;;;;;;;;;5073294;28;20444;-82
2021/11/04 05:26:02;;;;;;;57.43;28.70;;;;;;;;;;5099144;22;20532;-83
2021/11/04 05:28:29;;;;;;;54.83;29.20;;;;;;;;;;5104601;28;20479;-84
2021/11/04 05:30:56;;;;;;;60.47;30.50;;;;;;;;;;5117276;28;20449;-84
2021/11/04 05:33:23;;;;;;;53.87;28.57;;;;;;;;;;5109278;28;20958;-82
2021/11/04 05:35:52;;;;;;;55.30;28.00;;;;;;;;;;5105627;28;20485;-83
2021/11/04 05:38:19;;;;;;;57.30;30.37;;;;;;;;;;5105114;28;20485;-82
2021/11/04 05:40:46;;;;;;;55.57;30.17;;;;;;;;;;5117394;28;20452;-82
2021/11/04 05:43:13;;;;;;;63.27;33.10;;;;;;;;;;5106670;28;20846;-82
2021/11/04 05:45:40;;;;;;;59.00;31.20;;;;;;;;;;5108179;28;20470;-83
2021/11/04 05:48:07;;;;;;;47.37;26.43;;;;;;;;;;5107324;28;20456;-83
2021/11/04 05:50:34;;;;;;;52.67;28.27;;;;;;;;;;5109223;28;20457;-81
2021/11/04 05:53:03;;;;;;;50.30;29.90;;;;;;;;;;5113651;28;20453;-82
2021/11/04 05:55:30;;;;;;;51.57;27.83;;;;;;;;;;5117485;28;20508;-80
2021/11/04 05:57:58;;;;;;;49.90;27.23;;;;;;;;;;5118078;28;20832;-82
2021/11/04 06:00:25;;;;;;;54.33;28.20;;;;;;;;;;5098946;28;20459;-82
2021/11/04 06:02:52;;;;;;;51.37;29.27;;;;;;;;;;5107601;28;20454;-84
2021/11/04 06:05:19;;;;;;;53.93;28.70;;;;;;;;;;5116777;28;20545;-82
2021/11/04 06:07:46;;;;;;;52.87;27.60;;;;;;;;;;5107984;28;20445;-81
2021/11/04 06:10:16;;;;;;;52.10;26.93;;;;;;;;;;5111176;28;20452;-82
2021/11/04 06:12:43;;;;;;;56.40;29.83;;;;;;;;;;5103056;28;20961;-82
2021/11/04 06:15:10;;;;;;;54.17;29.00;;;;;;;;;;5101510;28;20446;-82
2021/11/04 06:17:37;;;;;;;64.80;30.90;;;;;;;;;;5102365;28;20456;-82
2021/11/04 06:20:05;;;;;;;60.80;30.00;;;;;;;;;;5104485;28;21014;-82
2021/11/04 06:22:32;;;;;;;60.23;30.30;;;;;;;;;;5115129;28;20444;-81
2021/11/04 06:24:59;;;;;;;54.17;31.07;;;;;;;;;;5128106;28;20452;-80
2021/11/04 06:27:27;;;;;;;63.13;32.40;;;;;;;;;;5133946;28;20448;-80
2021/11/04 06:29:55;;;;;;;53.77;28.30;;;;;;;;;;5133147;28;20505;-81
2021/11/04 06:32:22;;;;;;;59.83;30.13;;;;;;;;;;5129359;28;20520;-80
2021/11/04 06:34:49;;;;;;;60.33;27.93;;;;;;;;;;5125263;28;20441;-82
2021/11/04 06:37:16;;;;;;;55.70;28.87;;;;;;;;;;5107366;28;20496;-83
2021/11/04 06:39:43;;;;;;;60.33;31.50;;;;;;;;;;5121464;27;20458;-81
2021/11/04 06:42:11;;;;;;;64.37;30.73;;;;;;;;;;5121990;27;20450;-81
2021/11/04 06:44:39;;;;;;;62.80;29.53;;;;;;;;;;5119293;27;20445;-79
2021/11/04 06:47:08;;;;;;;57.60;29.53;;;;;;;;;;5129532;27;20466;-81
2021/11/04 06:49:36;;;;;;;51.87;27.03;;;;;;;;;;5109254;28;20453;-83
2021/11/04 06:52:03;;;;;;;52.33;28.53;;;;;;;;;;5113819;28;20449;-82
2021/11/04 06:54:32;;;;;;;53.83;27.10;;;;;;;;;;5105554;28;20453;-84
2021/11/04 06:57:01;;;;;;;58.80;29.23;;;;;;;;;;5110759;28;20484;-81
2021/11/04 06:59:31;;;;;;;55.70;27.90;;;;;;;;;;5107359;28;20456;-81
2021/11/04 07:02:04;;;;;;;66.97;30.10;;;;;;;;;;5106968;28;20959;-84
2021/11/04 07:04:34;;;;;;;59.20;29.47;;;;;;;;;;5101301;28;20454;-81
2021/11/04 07:07:09;;;;;;;65.73;35.17;;;;;;;;;;5109847;28;20466;-82
2021/11/04 07:09:37;;;;;;;55.20;29.33;;;;;;;;;;5108453;28;20458;-81
2021/11/04 07:12:07;;;;;;;57.97;29.47;;;;;;;;;;5107220;28;20461;-82
2021/11/04 07:14:37;;;;;;;70.20;33.70;;;;;;;;;;5105607;28;20893;-82
2021/11/04 07:17:07;;;;;;;62.60;31.00;;;;;;;;;;5106753;28;21015;-83
2021/11/04 07:19:34;;;;;;;63.93;31.33;;;;;;;;;;5103126;28;20460;-83
2021/11/04 07:22:06;;;;;;;56.80;29.23;;;;;;;;;;5105566;28;20445;-81
2021/11/04 07:24:37;;;;;;;57.53;29.50;;;;;;;;;;5103676;28;20528;-81
2021/11/04 07:27:14;;;;;;;63.00;31.43;;;;;;;;;;5106944;28;20478;-82
2021/11/04 07:29:46;;;;;;;58.50;29.40;;;;;;;;;;5110063;28;20452;-83
2021/11/04 07:32:16;;;;;;;74.57;32.73;;;;;;;;;;5102768;28;20549;-82
2021/11/04 07:34:44;;;;;;;60.70;31.27;;;;;;;;;;5104040;27;20450;-82
2021/11/04 07:37:12;;;;;;;60.30;32.07;;;;;;;;;;5114109;27;20559;-83
2021/11/04 07:39:40;;;;;;;69.37;33.33;;;;;;;;;;5106538;28;20463;-83
2021/11/04 07:42:08;;;;;;;61.90;31.17;;;;;;;;;;5107771;28;20441;-81
2021/11/04 07:44:35;;;;;;;54.13;28.90;;;;;;;;;;5109576;27;20532;-83
2021/11/04 07:47:02;;;;;;;64.23;33.80;;;;;;;;;;5123331;27;20466;-82
2021/11/04 07:49:31;;;;;;;60.77;28.13;;;;;;;;;;5110617;28;20832;-83
2021/11/04 07:52:00;;;;;;;58.30;27.37;;;;;;;;;;5124754;27;20444;-83
2021/11/04 07:54:27;;;;;;;54.40;27.57;;;;;;;;;;5128288;27;20881;-82
2021/11/04 07:56:54;;;;;;;53.20;26.77;;;;;;;;;;5110844;27;20848;-83
2021/11/04 07:59:21;;;;;;;50.77;24.77;;;;;;;;;;5118058;27;20463;-83
2021/11/04 08:01:49;;;;;;;54.00;25.17;;;;;;;;;;5104301;27;20448;-82
2021/11/04 08:04:16;;;;;;;50.40;26.00;;;;;;;;;;5111303;27;20801;-83
2021/11/04 08:06:44;;;;;;;62.60;27.93;;;;;;;;;;5111915;27;20535;-83
2021/11/04 08:09:11;;;;;;;57.13;28.20;;;;;;;;;;5105686;27;20451;-83
2021/11/04 08:11:38;;;;;;;52.33;27.10;;;;;;;;;;5107091;27;20441;-82
2021/11/04 08:14:06;;;;;;;64.97;26.70;;;;;;;;;;5108318;27;20442;-82
2021/11/04 08:16:33;;;;;;;46.20;24.17;;;;;;;;;;5112645;27;20519;-83
2021/11/04 08:19:00;;;;;;;45.90;23.33;;;;;;;;;;5109457;27;20838;-82
2021/11/04 08:21:27;;;;;;;46.43;25.77;;;;;;;;;;5106352;27;20455;-81
2021/11/04 08:23:56;;;;;;;48.53;23.03;;;;;;;;;;5108400;27;20450;-80
2021/11/04 08:26:23;;;;;;;50.40;24.40;;;;;;;;;;5112622;27;20477;-82
2021/11/04 08:28:50;;;;;;;51.13;23.90;;;;;;;;;;5107079;28;20462;-81
2021/11/04 08:31:17;;;;;;;51.73;23.93;;;;;;;;;;5108258;27;20460;-83
2021/11/04 08:33:44;;;;;;;48.80;24.07;;;;;;;;;;5103898;28;20458;-82
2021/11/04 08:36:12;;;;;;;49.97;24.63;;;;;;;;;;5114304;28;20489;-82
2021/11/04 08:38:39;;;;;;;55.77;26.77;;;;;;;;;;5117152;28;20456;-82
2021/11/04 08:41:07;;;;;;;57.33;25.20;;;;;;;;;;5119416;28;21033;-82
2021/11/04 08:43:34;;;;;;;46.20;23.07;;;;;;;;;;5105585;28;20465;-81
2021/11/04 08:46:01;;;;;;;54.30;23.63;;;;;;;;;;5114616;28;21066;-83
2021/11/04 08:48:29;;;;;;;48.00;22.80;;;;;;;;;;5104586;28;20462;-82
2021/11/04 08:50:56;;;;;;;43.63;21.10;;;;;;;;;;5112131;28;20464;-82
2021/11/04 08:53:23;;;;;;;45.40;23.07;;;;;;;;;;5107003;28;20466;-82
2021/11/04 08:55:50;;;;;;;48.67;24.83;;;;;;;;;;5108356;28;20463;-81
2021/11/04 08:58:18;;;;;;;47.73;25.17;;;;;;;;;;5108797;28;20442;-82
2021/11/04 09:00:45;;;;;;;41.40;21.80;;;;;;;;;;5105155;28;20447;-81
2021/11/04 09:03:13;;;;;;;44.20;23.10;;;;;;;;;;5109506;28;20460;-82
2021/11/04 09:05:40;;;;;;;48.23;21.50;;;;;;;;;;5109231;28;20523;-82
2021/11/04 09:08:08;;;;;;;51.23;21.23;;;;;;;;;;5112928;28;22223;-81
2021/11/04 09:10:35;;;;;;;50.30;23.10;;;;;;;;;;5119062;28;20434;-82
2021/11/04 09:13:02;;;;;;;44.20;21.67;;;;;;;;;;5117088;28;20484;-82
2021/11/04 09:15:30;;;;;;;46.87;21.50;;;;;;;;;;5119881;27;20463;-83
2021/11/04 09:17:59;;;;;;;43.60;21.50;;;;;;;;;;5109275;28;20486;-82
2021/11/04 09:20:26;;;;;;;45.57;21.47;;;;;;;;;;5105868;28;20451;-82
2021/11/04 09:22:53;;;;;;;42.33;21.97;;;;;;;;;;5104951;28;20450;-81
2021/11/04 09:25:45;;;;;;;35.27;17.67;;;;;;;;;;5113543;28;20478;-82
2021/11/04 09:28:18;;;;;;;42.80;19.70;;;;;;;;;;5095126;28;20446;-82
2021/11/04 09:30:47;;;;;;;40.93;19.93;;;;;;;;;;5103278;28;20458;-81
2021/11/04 09:36:25;;;;;;;43.93;20.70;;;;;;;;;;5068200;28;20475;-81
2021/11/04 09:38:52;;;;;;;44.47;22.30;;;;;;;;;;5100721;28;20477;-81
2021/11/04 09:41:19;;;;;;;44.40;21.30;;;;;;;;;;5099958;28;20462;-82
2021/11/04 09:43:47;;;;;;;40.57;18.93;;;;;;;;;;5105915;28;20454;-82
2021/11/04 09:46:16;;;;;;;45.07;22.97;;;;;;;;;;5107500;28;20475;-82
2021/11/04 09:48:43;;;;;;;40.70;21.30;;;;;;;;;;5106340;28;20451;-83
2021/11/04 09:51:10;;;;;;;44.27;22.30;;;;;;;;;;5112975;28;20958;-83
2021/11/04 09:53:38;;;;;;;45.13;23.07;;;;;;;;;;5113228;28;20526;-84
2021/11/04 09:56:05;;;;;;;43.33;21.63;;;;;;;;;;5105546;28;20869;-84
2021/11/04 09:58:33;;;;;;;43.67;22.43;;;;;;;;;;5106067;28;20455;-84
2021/11/04 10:01:15;;;;;;;42.77;21.40;;;;;;;;;;5109285;28;20850;-83
2021/11/04 10:03:44;;;;;;;38.63;20.77;;;;;;;;;;5118643;28;20812;-84
2021/11/04 10:06:18;;;;;;;47.77;22.80;;;;;;;;;;5111101;28;20467;-84
2021/11/04 10:08:45;;;;;;;49.17;24.67;;;;;;;;;;5107925;28;20451;-83
2021/11/04 10:11:13;;;;;;;46.53;22.93;;;;;;;;;;5113569;28;20483;-84
2021/11/04 10:13:40;;;;;;;47.90;23.97;;;;;;;;;;5112747;28;20450;-84
2021/11/04 10:16:08;;;;;;;50.63;22.37;;;;;;;;;;5114141;28;20471;-84
2021/11/04 10:18:39;;;;;;;57.00;25.37;;;;;;;;;;5114514;28;20488;-84
2021/11/04 10:21:08;;;;;;;51.17;23.40;;;;;;;;;;5119428;28;21027;-83
2021/11/04 10:23:39;;;;;;;48.67;24.53;;;;;;;;;;5113111;28;20460;-83
2021/11/04 10:26:11;;;;;;;51.80;23.70;;;;;;;;;;5118662;28;20973;-84
2021/11/04 10:28:39;;;;;;;49.50;27.20;;;;;;;;;;5121665;28;20454;-85
2021/11/04 10:31:08;;;;;;;53.73;25.90;;;;;;;;;;5117413;28;20451;-84
2021/11/04 10:33:36;;;;;;;60.53;28.07;;;;;;;;;;5107575;28;20447;-83
2021/11/04 10:36:06;;;;;;;55.83;27.37;;;;;;;;;;5113775;28;20473;-84
2021/11/04 10:38:45;;;;;;;62.17;27.23;;;;;;;;;;5117560;28;20487;-83
2021/11/04 10:41:19;;;;;;;54.93;26.47;;;;;;;;;;5110648;28;20543;-84
2021/11/04 10:43:46;;;;;;;59.13;27.40;;;;;;;;;;5121579;28;20463;-83
2021/11/04 10:46:16;;;;;;;68.57;32.07;;;;;;;;;;5117639;28;20480;-83
2021/11/04 10:48:43;;;;;;;60.53;29.30;;;;;;;;;;5113259;28;20980;-83
2021/11/04 10:51:14;;;;;;;67.13;32.50;;;;;;;;;;5116078;28;20578;-83
2021/11/04 10:53:43;;;;;;;65.40;30.13;;;;;;;;;;5108430;28;20507;-84
2021/11/04 10:56:15;;;;;;;73.90;33.10;;;;;;;;;;5121408;28;20523;-84
2021/11/04 10:58:42;;;;;;;76.07;34.77;;;;;;;;;;5110048;28;20473;-83
2021/11/04 11:01:24;;;;;;;64.80;32.67;;;;;;;;;;5108227;28;20452;-84
2021/11/04 11:03:53;;;;;;;81.90;33.13;;;;;;;;;;5106317;28;20463;-84
2021/11/04 11:06:21;;;;;;;70.60;32.33;;;;;;;;;;5111980;28;20480;-83
2021/11/04 11:08:50;;;;;;;80.57;32.20;;;;;;;;;;5110198;28;20454;-84
2021/11/04 11:11:19;;;;;;;84.63;36.10;;;;;;;;;;5113543;28;20457;-83
2021/11/04 11:13:47;;;;;;;68.83;32.27;;;;;;;;;;5111288;28;20481;-84
2021/11/04 11:16:16;;;;;;;70.73;35.03;;;;;;;;;;5120432;28;20891;-83
2021/11/04 11:18:43;;;;;;;63.43;34.93;;;;;;;;;;5124542;28;20483;-83
2021/11/04 11:21:10;;;;;;;69.77;33.80;;;;;;;;;;5121329;28;20427;-84
2021/11/04 11:23:38;;;;;;;65.37;33.40;;;;;;;;;;5127086;28;20498;-84
2021/11/04 11:26:12;;;;;;;64.00;34.70;;;;;;;;;;5125333;28;20475;-83
2021/11/04 11:28:40;;;;;;;69.60;36.47;;;;;;;;;;5150293;22;20500;-80
2021/11/04 11:31:14;;;;;;;68.40;37.70;;;;;;;;;;5105486;28;20453;-80
2021/11/04 11:33:41;;;;;;;77.83;38.43;;;;;;;;;;5114315;28;20447;-80
2021/11/04 11:36:12;;;;;;;65.40;36.60;;;;;;;;;;5103403;28;20469;-80
2021/11/04 11:38:58;;;;;;;73.80;35.33;;;;;;;;;;5100101;28;20487;-82
2021/11/04 11:41:28;;;;;;;66.17;36.13;;;;;;;;;;5087593;28;20477;-82
2021/11/04 11:43:55;;;;;;;74.43;39.80;;;;;;;;;;5086642;28;20538;-83
2021/11/04 11:46:22;;;;;;;67.50;36.67;;;;;;;;;;5085117;28;20455;-82
2021/11/04 11:49:04;;;;;;;65.60;36.23;;;;;;;;;;5085984;28;20472;-82
2021/11/04 11:51:38;;;;;;;70.07;36.27;;;;;;;;;;5102395;28;20460;-82
2021/11/04 11:54:06;;;;;;;69.10;37.93;;;;;;;;;;5086779;28;20457;-82
2021/11/04 11:56:34;;;;;;;67.23;36.63;;;;;;;;;;5082356;28;20465;-81
2021/11/04 11:59:16;;;;;;;70.90;37.67;;;;;;;;;;5084542;28;20493;-85
2021/11/04 12:01:48;;;;;;;70.87;40.30;;;;;;;;;;5082020;28;20535;-83
2021/11/04 12:04:25;;;;;;;74.20;38.63;;;;;;;;;;5083386;28;20539;-84
2021/11/04 12:06:54;;;;;;;65.67;35.20;;;;;;;;;;5088633;28;20489;-84
2021/11/04 12:09:34;;;;;;;65.73;35.93;;;;;;;;;;5099383;28;20456;-84
2021/11/04 12:12:03;;;;;;;62.97;35.47;;;;;;;;;;5096330;28;20517;-84
2021/11/04 12:14:30;;;;;;;62.17;36.77;;;;;;;;;;5091006;28;20531;-85
2021/11/04 12:17:11;;;;;;;59.60;36.23;;;;;;;;;;5096878;28;20539;-84
2021/11/04 12:19:38;;;;;;;66.67;37.63;;;;;;;;;;5096117;28;20985;-83
2021/11/04 12:22:06;;;;;;;66.43;35.97;;;;;;;;;;5103774;28;20449;-82
2021/11/04 12:24:34;;;;;;;67.13;39.37;;;;;;;;;;5099798;28;20543;-81
2021/11/04 12:27:11;;;;;;;62.57;37.57;;;;;;;;;;5084777;28;20913;-82
2021/11/04 12:29:38;;;;;;;54.50;35.60;;;;;;;;;;5094549;28;20548;-81
2021/11/04 12:32:09;;;;;;;52.87;32.27;;;;;;;;;;5089912;28;20459;-82
2021/11/04 12:34:36;;;;;;;52.70;31.37;;;;;;;;;;5095943;28;20466;-82
2021/11/04 12:37:09;;;;;;;56.17;35.40;;;;;;;;;;5084962;28;20475;-82
2021/11/04 12:39:36;;;;;;;49.40;33.17;;;;;;;;;;5085947;28;20564;-82
2021/11/04 12:42:03;;;;;;;55.67;34.97;;;;;;;;;;5082138;28;20459;-82
2021/11/04 12:44:32;;;;;;;41.33;26.97;;;;;;;;;;5082932;28;21008;-82
2021/11/04 12:47:00;;;;;;;49.80;30.57;;;;;;;;;;5097291;28;20456;-82
2021/11/04 12:49:29;;;;;;;53.83;34.20;;;;;;;;;;5099414;28;20454;-80
2021/11/04 12:51:58;;;;;;;66.97;38.30;;;;;;;;;;5094629;28;20484;-81
2021/11/04 12:54:25;;;;;;;52.73;31.73;;;;;;;;;;5087347;28;20549;-80
2021/11/04 12:56:54;;;;;;;52.20;34.80;;;;;;;;;;5086813;28;20456;-79
2021/11/04 12:59:35;;;;;;;55.37;33.77;;;;;;;;;;5084091;28;20486;-80
2021/11/04 13:02:03;;;;;;;60.57;35.47;;;;;;;;;;5086362;28;20485;-80
2021/11/04 13:04:32;;;;;;;50.27;31.33;;;;;;;;;;5096211;28;20457;-81
2021/11/04 13:06:59;;;;;;;58.67;34.87;;;;;;;;;;5097252;28;20544;-82
2021/11/04 13:09:27;;;;;;;52.83;32.33;;;;;;;;;;5086917;28;20458;-81
2021/11/04 13:12:04;;;;;;;67.43;34.27;;;;;;;;;;5079369;28;20461;-81
2021/11/04 13:14:47;;;;;;;52.87;32.40;;;;;;;;;;5103231;28;20448;-81
2021/11/04 13:17:14;;;;;;;64.10;31.60;;;;;;;;;;5098361;28;20470;-80
2021/11/04 13:19:54;;;;;;;54.93;31.90;;;;;;;;;;5106014;28;20460;-81
2021/11/04 13:22:21;;;;;;;61.07;35.50;;;;;;;;;;5099484;28;20463;-81
2021/11/04 13:24:48;;;;;;;73.00;37.87;;;;;;;;;;5102526;28;20983;-80
2021/11/04 13:27:16;;;;;;;58.90;32.17;;;;;;;;;;5099121;28;20488;-82
2021/11/04 13:29:49;;;;;;;54.10;33.20;;;;;;;;;;5093034;28;20894;-80
2021/11/04 13:32:16;;;;;;;63.57;34.73;;;;;;;;;;5085276;28;20546;-80
2021/11/04 13:34:43;;;;;;;59.80;34.20;;;;;;;;;;5107560;28;20823;-79
2021/11/04 13:37:15;;;;;;;63.50;38.80;;;;;;;;;;5116917;28;20484;-80
2021/11/04 13:39:42;;;;;;;58.13;35.00;;;;;;;;;;5103724;28;20528;-80
2021/11/04 13:42:20;;;;;;;62.60;35.50;;;;;;;;;;5102205;28;20482;-79
2021/11/04 13:44:47;;;;;;;63.37;35.37;;;;;;;;;;5082098;28;20461;-80
2021/11/04 13:47:15;;;;;;;60.87;37.13;;;;;;;;;;5097186;28;20484;-80
2021/11/04 13:49:50;;;;;;;59.07;33.00;;;;;;;;;;5092935;28;20515;-81
2021/11/04 13:52:25;;;;;;;55.30;35.60;;;;;;;;;;5102787;28;20461;-80
2021/11/04 13:54:52;;;;;;;59.90;35.80;;;;;;;;;;5114510;28;20483;-82
2021/11/04 13:57:19;;;;;;;65.83;37.37;;;;;;;;;;5118510;28;20477;-84
2021/11/04 13:59:51;;;;;;;64.10;36.90;;;;;;;;;;5103808;28;20538;-80
2021/11/04 14:02:22;;;;;;;60.10;37.40;;;;;;;;;;5102393;28;20453;-80
2021/11/04 14:04:51;;;;;;;58.83;36.10;;;;;;;;;;5104886;28;20457;-81
2021/11/04 14:07:25;;;;;;;64.83;39.87;;;;;;;;;;5094648;28;20551;-81
2021/11/04 14:09:55;;;;;;;66.03;38.60;;;;;;;;;;5085251;28;20513;-80
2021/11/04 14:12:27;;;;;;;65.37;37.80;;;;;;;;;;5085021;28;20454;-80
2021/11/04 14:14:54;;;;;;;68.53;38.50;;;;;;;;;;5099854;28;20452;-80
2021/11/04 14:17:27;;;;;;;62.57;37.60;;;;;;;;;;5105328;28;20481;-80
2021/11/04 14:19:55;;;;;;;62.47;38.30;;;;;;;;;;5107585;28;20453;-81
2021/11/04 14:22:22;;;;;;;72.70;40.10;;;;;;;;;;5096941;28;20447;-81
2021/11/04 14:24:50;;;;;;;68.87;39.80;;;;;;;;;;5104881;28;20522;-81
2021/11/04 14:27:17;;;;;;;62.50;37.27;;;;;;;;;;5100350;28;20475;-81